Arnot, Pennsylvania
Current Conditions -  °F | °C
As of 2:55 PM on Monday 24 Nov 2014 (Local Time) from KN38 Reporting Station
Broken Clouds Broken Clouds  
Wind Chill: 63°   Ceiling: 4900
Heat Index: 63°   Visibility: 10mi
Dew Point: 50°   Wind: 22mph
Humidity: 63%   Direction: 190°S
Pressure: 29.43"   Gusts: 30mph
Location:  41.66°N, 77.12°W
Report Text: KN38 241955Z AUTO 19019G26KT 10SM SCT041 BKN049 BKN060 17/10 A2943 RMK AO2
Loading
Personal Weather Stations






























Interactive Weather Map New forecast layout! Learn more

10-Day Weather Forecast

Advertisements
Track Severe Weather on mobile